createdAt,value
2018-04-17T00:01:33.319Z,10.75
2018-04-17T00:04:00.863Z,10.80
2018-04-17T00:06:28.418Z,10.82
2018-04-17T00:08:56.137Z,10.84
2018-04-17T00:11:23.664Z,10.87
2018-04-17T00:13:51.199Z,10.90
2018-04-17T00:16:19.010Z,10.91
2018-04-17T00:18:46.561Z,10.91
2018-04-17T00:21:14.111Z,10.92
2018-04-17T00:23:41.691Z,10.92
2018-04-17T00:26:09.239Z,10.97
2018-04-17T00:28:36.794Z,10.99
2018-04-17T00:31:04.376Z,11.00
2018-04-17T00:33:31.944Z,11.01
2018-04-17T00:35:59.491Z,11.03
2018-04-17T00:38:27.105Z,11.03
2018-04-17T00:40:54.666Z,11.07
2018-04-17T00:43:22.211Z,11.11
2018-04-17T00:45:50.024Z,11.08
2018-04-17T00:48:17.566Z,11.08
2018-04-17T00:50:45.123Z,11.11
2018-04-17T00:53:24.667Z,11.10
2018-04-17T00:55:52.218Z,11.10
2018-04-17T00:58:19.768Z,11.13
2018-04-17T01:00:47.368Z,11.13
2018-04-17T01:03:14.910Z,11.15
2018-04-17T01:05:42.447Z,11.13
2018-04-17T01:08:10.160Z,11.11
2018-04-17T01:10:37.701Z,11.12
2018-04-17T01:13:05.253Z,11.09
2018-04-17T01:15:32.843Z,11.04
2018-04-17T01:18:00.388Z,11.07
2018-04-17T01:20:27.918Z,11.04
2018-04-17T01:22:55.632Z,11.03
2018-04-17T01:25:23.181Z,10.89
2018-04-17T01:27:50.732Z,10.84
2018-04-17T01:30:18.295Z,10.74
2018-04-17T01:32:45.844Z,10.78
2018-04-17T01:35:14.065Z,10.85
2018-04-17T01:37:41.668Z,10.88
2018-04-17T01:40:09.215Z,10.95
2018-04-17T01:42:36.776Z,10.92
2018-04-17T01:45:04.482Z,10.76
2018-04-17T01:47:32.032Z,10.65
2018-04-17T01:49:59.594Z,10.63
2018-04-17T01:52:27.157Z,10.68
2018-04-17T01:54:54.711Z,10.49
2018-04-17T01:57:22.258Z,10.39
2018-04-17T01:59:49.857Z,10.34
2018-04-17T02:02:17.407Z,10.39
2018-04-17T02:04:44.959Z,10.47
2018-04-17T02:07:12.674Z,10.56
2018-04-17T02:09:40.222Z,10.67
2018-04-17T02:12:07.763Z,10.52
2018-04-17T02:14:35.359Z,10.40
2018-04-17T02:17:02.913Z,10.50
2018-04-17T02:19:30.460Z,10.58
2018-04-17T02:21:58.059Z,10.64
2018-04-17T02:24:25.600Z,10.67
2018-04-17T02:26:53.149Z,10.68
2018-04-17T02:29:20.713Z,10.59
2018-04-17T02:31:48.263Z,10.61
2018-04-17T02:34:15.867Z,10.68
2018-04-17T02:36:43.419Z,10.66
2018-04-17T02:39:10.963Z,10.70
2018-04-17T02:41:38.556Z,10.65
2018-04-17T02:44:06.119Z,10.65
2018-04-17T02:46:33.667Z,10.64
2018-04-17T02:49:01.539Z,10.55
2018-04-17T02:51:29.091Z,10.46
2018-04-17T02:53:56.636Z,10.52
2018-04-17T02:56:24.325Z,10.53
2018-04-17T02:58:51.872Z,10.50
2018-04-17T03:01:19.416Z,10.45
2018-04-17T03:03:46.991Z,10.46
2018-04-17T03:06:14.548Z,10.43
2018-04-17T03:08:42.107Z,10.47
2018-04-17T03:11:09.676Z,10.57
2018-04-17T03:13:37.223Z,10.65
2018-04-17T03:16:04.768Z,10.66
2018-04-17T03:18:32.342Z,10.75
2018-04-17T03:20:59.892Z,10.82
2018-04-17T03:23:27.437Z,10.81
2018-04-17T03:25:55.197Z,10.74
2018-04-17T03:28:22.776Z,10.66
2018-04-17T03:30:50.317Z,10.65
2018-04-17T03:33:17.893Z,10.64
2018-04-17T03:35:45.448Z,10.66
2018-04-17T03:38:12.992Z,10.66
2018-04-17T03:40:40.769Z,10.67
2018-04-17T03:43:08.312Z,10.69
2018-04-17T03:45:35.869Z,10.70
2018-04-17T03:48:03.447Z,10.72
2018-04-17T03:50:30.988Z,10.72
2018-04-17T03:52:58.541Z,10.73
2018-04-17T03:55:26.267Z,10.74
2018-04-17T03:57:53.838Z,10.80
2018-04-17T04:00:21.417Z,10.82
2018-04-17T04:02:49.007Z,10.76
2018-04-17T04:05:16.568Z,10.71
2018-04-17T04:07:44.125Z,10.73
2018-04-17T04:10:11.845Z,10.71
2018-04-17T04:12:39.392Z,10.73
2018-04-17T04:15:06.965Z,10.78
2018-04-17T04:17:46.540Z,10.82
2018-04-17T04:20:27.136Z,10.87
2018-04-17T04:23:06.341Z,11.00
2018-04-17T04:28:45.413Z,11.03
2018-04-17T04:31:12.961Z,11.08
2018-04-17T04:33:40.524Z,11.14
2018-04-17T04:36:08.079Z,11.23
2018-04-17T04:38:35.636Z,11.29
2018-04-17T04:41:03.221Z,11.38
2018-04-17T04:43:30.771Z,11.46
2018-04-17T04:45:58.364Z,11.50
2018-04-17T04:48:26.087Z,11.56
2018-04-17T04:50:53.673Z,11.61
2018-04-17T04:53:21.215Z,11.72
2018-04-17T04:55:48.994Z,11.84
2018-04-17T04:58:16.534Z,11.93
2018-04-17T05:00:44.092Z,12.09
2018-04-17T05:03:11.824Z,12.29
2018-04-17T05:05:39.381Z,12.52
2018-04-17T05:08:06.931Z,12.73
2018-04-17T05:10:34.808Z,12.93
2018-04-17T05:13:02.362Z,13.09
2018-04-17T05:15:29.912Z,13.24
2018-04-17T05:17:57.515Z,13.26
2018-04-17T05:20:25.080Z,13.29
2018-04-17T05:22:52.633Z,13.41
2018-04-17T05:25:20.372Z,13.76
2018-04-17T05:27:47.933Z,14.22
2018-04-17T05:30:15.503Z,14.79
2018-04-17T05:32:43.183Z,15.79
2018-04-17T05:35:10.737Z,17.01
2018-04-17T05:37:38.282Z,17.35
2018-04-17T05:40:07.114Z,17.37
2018-04-17T05:42:34.692Z,17.35
2018-04-17T05:45:02.236Z,17.39
2018-04-17T05:47:29.837Z,17.61
2018-04-17T05:49:57.391Z,17.58
2018-04-17T05:52:24.944Z,17.33
2018-04-17T05:54:52.643Z,16.77
2018-04-17T05:57:20.195Z,16.70
2018-04-17T05:59:47.740Z,16.74
2018-04-17T06:02:15.324Z,16.65
2018-04-17T06:04:42.873Z,16.80
2018-04-17T06:07:10.438Z,17.41
2018-04-17T06:09:38.038Z,18.19
2018-04-17T06:12:05.584Z,18.32
2018-04-17T06:14:33.148Z,18.12
2018-04-17T06:17:00.738Z,17.63
2018-04-17T06:19:28.294Z,17.50
2018-04-17T06:21:55.840Z,17.11
2018-04-17T06:24:23.440Z,17.16
2018-04-17T06:26:50.999Z,17.54
2018-04-17T06:29:18.545Z,17.80
2018-04-17T06:31:46.194Z,18.00
2018-04-17T06:34:13.745Z,18.01
2018-04-17T06:36:41.299Z,18.16
2018-04-17T06:39:08.864Z,18.38
2018-04-17T06:41:36.415Z,18.16
2018-04-17T06:44:03.995Z,18.00
2018-04-17T06:46:31.678Z,17.56
2018-04-17T06:48:59.245Z,17.70
2018-04-17T06:51:26.849Z,17.73
2018-04-17T06:53:54.513Z,18.08
2018-04-17T06:56:22.059Z,18.19
2018-04-17T06:58:49.637Z,18.18
2018-04-17T07:01:17.375Z,17.66
2018-04-17T07:03:44.929Z,18.00
2018-04-17T07:06:12.496Z,18.17
2018-04-17T07:08:40.096Z,18.47
2018-04-17T07:11:07.645Z,18.81
2018-04-17T07:13:35.213Z,19.18
2018-04-17T07:16:02.829Z,19.83
2018-04-17T07:18:30.372Z,20.43
2018-04-17T07:20:57.915Z,20.58
2018-04-17T07:23:25.480Z,19.79
2018-04-17T07:25:53.027Z,19.47
2018-04-17T07:28:20.582Z,19.71
2018-04-17T07:30:48.128Z,19.81
2018-04-17T07:34:55.737Z,20.04
2018-04-17T07:37:23.293Z,20.48
2018-04-17T07:42:43.942Z,20.14
2018-04-17T07:45:11.537Z,20.05
2018-04-17T07:47:39.123Z,20.06
2018-04-17T07:50:07.003Z,20.12
2018-04-17T07:52:34.561Z,20.53
2018-04-17T07:55:02.134Z,20.31
2018-04-17T07:57:29.873Z,20.55
2018-04-17T07:59:57.426Z,20.67
2018-04-17T08:02:24.975Z,20.71
2018-04-17T08:04:52.567Z,20.98
2018-04-17T08:07:20.111Z,21.19
2018-04-17T08:09:47.682Z,21.38
2018-04-17T08:12:15.272Z,21.63
2018-04-17T08:14:42.826Z,21.59
2018-04-17T08:17:10.392Z,21.23
2018-04-17T08:19:37.964Z,21.18
2018-04-17T08:22:05.517Z,21.11
2018-04-17T08:24:33.080Z,20.80
2018-04-17T08:27:00.941Z,20.82
2018-04-17T08:29:28.493Z,20.91
2018-04-17T08:31:56.039Z,20.96
2018-04-17T08:34:23.731Z,20.64
2018-04-17T08:36:51.289Z,20.71
2018-04-17T08:39:18.879Z,20.71
2018-04-17T08:41:46.601Z,20.85
2018-04-17T08:44:14.173Z,20.55
2018-04-17T08:46:41.725Z,20.32
2018-04-17T08:49:09.314Z,20.57
2018-04-17T08:51:37.798Z,20.63
2018-04-17T08:54:05.353Z,20.54
2018-04-17T08:56:33.199Z,20.28
2018-04-17T08:59:00.749Z,20.22
2018-04-17T09:01:28.299Z,20.53
2018-04-17T09:03:56.030Z,20.75
2018-04-17T09:06:23.579Z,20.81
2018-04-17T09:08:51.138Z,21.16
2018-04-17T09:11:18.789Z,20.75
2018-04-17T09:13:46.366Z,20.45
2018-04-17T09:16:13.927Z,20.88
2018-04-17T09:18:41.508Z,21.16
2018-04-17T09:21:09.060Z,21.20
2018-04-17T09:23:36.631Z,20.68
2018-04-17T09:26:04.549Z,20.81
2018-04-17T09:28:32.109Z,20.60
2018-04-17T09:30:59.673Z,20.65
2018-04-17T09:33:27.483Z,20.76
2018-04-17T09:35:55.047Z,20.44
2018-04-17T09:38:22.596Z,20.31
2018-04-17T09:40:50.218Z,20.21
2018-04-17T09:43:17.788Z,20.40
2018-04-17T09:45:45.346Z,20.69
2018-04-17T09:48:13.887Z,21.00
2018-04-17T09:50:41.445Z,21.06
2018-04-17T09:53:08.998Z,21.42
2018-04-17T09:55:36.608Z,21.37
2018-04-17T09:58:04.156Z,21.22
2018-04-17T10:00:37.472Z,21.03
2018-04-17T10:03:05.017Z,20.99
2018-04-17T10:05:32.570Z,21.01
2018-04-17T10:08:00.239Z,21.16
2018-04-17T10:10:27.771Z,21.07
2018-04-17T10:12:55.319Z,21.21
2018-04-17T10:15:22.900Z,21.49
2018-04-17T10:17:50.460Z,21.47
2018-04-17T10:20:18.030Z,21.70
2018-04-17T10:22:45.601Z,21.94
2018-04-17T10:25:13.152Z,22.16
2018-04-17T10:27:40.696Z,22.39
2018-04-17T10:30:08.238Z,22.69
2018-04-17T10:32:35.789Z,22.60
2018-04-17T10:35:03.557Z,22.45
2018-04-17T10:37:31.100Z,22.12
2018-04-17T10:39:58.649Z,22.39
2018-04-17T10:42:26.340Z,22.37
2018-04-17T10:44:53.888Z,22.43
2018-04-17T10:47:21.449Z,22.66
2018-04-17T10:49:49.041Z,23.06
2018-04-17T10:52:16.599Z,22.77
2018-04-17T10:54:44.149Z,22.21
2018-04-17T10:57:11.722Z,22.06
2018-04-17T10:59:39.275Z,22.06
2018-04-17T11:02:06.865Z,22.56
2018-04-17T11:04:34.457Z,22.64
2018-04-17T11:07:02.006Z,21.97
2018-04-17T11:09:29.551Z,22.31
2018-04-17T11:11:57.145Z,22.39
2018-04-17T11:14:24.688Z,22.35
2018-04-17T11:16:52.235Z,22.59
2018-04-17T11:19:19.836Z,22.65
2018-04-17T11:21:47.392Z,22.97
2018-04-17T11:24:14.991Z,23.00
2018-04-17T11:26:42.715Z,22.85
2018-04-17T11:29:10.320Z,22.77
2018-04-17T11:31:37.841Z,22.81
2018-04-17T11:34:05.416Z,22.50
2018-04-17T11:36:32.964Z,22.47
2018-04-17T11:39:07.228Z,22.55
2018-04-17T11:41:34.768Z,22.68
2018-04-17T11:44:02.318Z,22.65
2018-04-17T11:46:30.051Z,22.70
2018-04-17T11:48:57.596Z,23.06
2018-04-17T11:51:25.153Z,23.22
2018-04-17T11:53:52.840Z,23.31
2018-04-17T11:56:20.389Z,23.47
2018-04-17T11:58:47.936Z,23.73
2018-04-17T12:01:15.794Z,23.97
2018-04-17T12:03:43.342Z,24.11
2018-04-17T12:06:10.912Z,23.54
2018-04-17T12:08:38.800Z,23.08
2018-04-17T12:11:06.374Z,22.49
2018-04-17T12:13:33.945Z,22.37
2018-04-17T12:16:01.726Z,22.48
2018-04-17T12:18:29.269Z,22.40
2018-04-17T12:20:56.817Z,22.09
2018-04-17T12:23:24.408Z,22.10
2018-04-17T12:25:52.022Z,22.21
2018-04-17T12:28:19.535Z,22.48
2018-04-17T12:30:47.131Z,22.38
2018-04-17T12:33:14.681Z,22.40
2018-04-17T12:35:42.558Z,22.40
2018-04-17T12:38:10.115Z,22.38
2018-04-17T12:40:37.667Z,22.36
2018-04-17T12:43:05.261Z,22.39
2018-04-17T12:45:32.839Z,22.45
2018-04-17T12:48:00.383Z,22.53
2018-04-17T12:50:28.120Z,22.39
2018-04-17T12:52:55.706Z,22.06
2018-04-17T12:55:23.270Z,21.65
2018-04-17T12:57:50.843Z,21.53
2018-04-17T13:00:18.389Z,21.52
2018-04-17T13:02:45.940Z,21.37
2018-04-17T13:05:13.676Z,21.22
2018-04-17T13:07:41.247Z,20.97
2018-04-17T13:10:08.853Z,20.95
2018-04-17T13:12:36.424Z,20.98
2018-04-17T13:15:03.982Z,21.06
2018-04-17T13:17:31.541Z,21.13
2018-04-17T13:19:59.189Z,21.23
2018-04-17T13:22:26.745Z,21.32
2018-04-17T13:24:54.324Z,21.35
2018-04-17T13:27:22.036Z,21.22
2018-04-17T13:29:49.592Z,21.30
2018-04-17T13:32:17.150Z,21.31
2018-04-17T13:34:44.732Z,21.32
2018-04-17T13:37:12.298Z,21.35
2018-04-17T13:39:39.845Z,21.35
2018-04-17T13:42:07.449Z,21.30
2018-04-17T13:44:34.987Z,21.22
2018-04-17T13:47:02.539Z,21.05
2018-04-17T13:49:30.113Z,21.11
2018-04-17T13:51:57.657Z,21.10
2018-04-17T13:54:25.196Z,21.18
2018-04-17T13:56:52.825Z,21.13
2018-04-17T13:59:20.376Z,21.21
2018-04-17T14:01:47.954Z,21.20
2018-04-17T14:04:15.546Z,21.10
2018-04-17T14:06:43.097Z,21.08
2018-04-17T14:09:10.667Z,21.19
2018-04-17T14:11:38.364Z,21.13
2018-04-17T14:14:05.898Z,21.31
2018-04-17T14:16:33.436Z,21.35
2018-04-17T14:19:01.019Z,21.44
2018-04-17T14:21:28.588Z,21.28
2018-04-17T14:23:56.142Z,21.50
2018-04-17T14:26:23.708Z,21.36
2018-04-17T14:28:51.249Z,21.57
2018-04-17T14:31:18.807Z,21.85
2018-04-17T14:33:46.372Z,21.92
2018-04-17T14:36:13.937Z,22.02
2018-04-17T14:38:41.515Z,21.93
2018-04-17T14:41:09.086Z,21.37
2018-04-17T14:43:36.779Z,20.89
2018-04-17T14:46:04.349Z,20.72
2018-04-17T14:48:31.969Z,20.21
2018-04-17T14:50:59.554Z,20.28
2018-04-17T14:53:27.101Z,20.21
2018-04-17T14:55:54.846Z,19.91
2018-04-17T14:58:22.389Z,19.68
2018-04-17T15:00:49.940Z,19.67
2018-04-17T15:03:17.526Z,19.47
2018-04-17T15:05:45.126Z,19.35
2018-04-17T15:08:13.420Z,19.21
2018-04-17T15:10:41.006Z,19.05
2018-04-17T15:13:08.562Z,18.94
2018-04-17T15:15:36.114Z,19.00
2018-04-17T15:18:03.677Z,19.01
2018-04-17T15:20:31.237Z,18.93
2018-04-17T15:22:58.788Z,18.88
2018-04-17T15:25:26.682Z,18.79
2018-04-17T15:27:54.248Z,18.66
2018-04-17T15:30:21.801Z,18.61
2018-04-17T15:32:49.523Z,18.45
2018-04-17T15:35:17.094Z,18.40
2018-04-17T15:37:44.683Z,18.21
2018-04-17T15:40:12.273Z,18.18
2018-04-17T15:42:39.826Z,18.08
2018-04-17T15:45:07.394Z,18.10
2018-04-17T15:47:35.262Z,17.98
2018-04-17T15:50:02.844Z,17.66
2018-04-17T15:52:30.388Z,17.45
2018-04-17T15:54:57.979Z,17.28
2018-04-17T15:57:25.533Z,17.19
2018-04-17T15:59:53.092Z,17.02
2018-04-17T16:02:20.833Z,16.95
2018-04-17T16:04:48.377Z,16.72
2018-04-17T16:07:15.945Z,16.56
2018-04-17T16:09:43.983Z,16.43
2018-04-17T16:12:11.535Z,16.26
2018-04-17T16:14:39.166Z,16.15
2018-04-17T16:17:06.809Z,15.95
2018-04-17T16:19:34.405Z,15.82
2018-04-17T16:22:01.958Z,15.65
2018-04-17T16:24:29.768Z,15.47
2018-04-17T16:26:57.324Z,15.32
2018-04-17T16:29:24.886Z,15.21
2018-04-17T16:31:52.502Z,15.02
2018-04-17T16:34:20.100Z,14.92
2018-04-17T16:36:47.653Z,14.90
2018-04-17T16:39:15.313Z,14.79
2018-04-17T16:41:42.905Z,14.76
2018-04-17T16:44:10.473Z,14.82
2018-04-17T16:46:38.371Z,14.67
2018-04-17T16:49:05.971Z,14.70
2018-04-17T16:51:33.565Z,14.66
2018-04-17T16:54:01.307Z,14.71
2018-04-17T16:56:28.871Z,14.75
2018-04-17T16:58:56.449Z,14.66
2018-04-17T17:01:24.217Z,14.68
2018-04-17T17:03:51.795Z,14.70
2018-04-17T17:06:19.346Z,14.67
2018-04-17T17:08:47.117Z,14.57
2018-04-17T17:11:14.698Z,14.60
2018-04-17T17:13:42.283Z,14.62
2018-04-17T17:16:10.172Z,14.55
2018-04-17T17:18:37.743Z,14.51
2018-04-17T17:21:05.315Z,14.45
2018-04-17T17:23:32.921Z,14.41
2018-04-17T17:26:00.522Z,14.43
2018-04-17T17:28:28.159Z,14.47
2018-04-17T17:30:55.775Z,14.39
2018-04-17T17:33:23.378Z,14.41
2018-04-17T17:35:50.997Z,14.42
2018-04-17T17:38:18.612Z,14.48
2018-04-17T17:40:46.184Z,14.55
2018-04-17T17:43:13.860Z,14.49
2018-04-17T17:45:41.461Z,14.58
2018-04-17T17:48:09.033Z,14.60
2018-04-17T17:50:36.856Z,14.52
2018-04-17T17:53:04.493Z,14.56
2018-04-17T17:55:32.229Z,14.57
2018-04-17T17:57:59.884Z,14.60
2018-04-17T18:00:27.555Z,14.62
2018-04-17T18:02:55.133Z,14.65
2018-04-17T18:05:22.796Z,14.66
2018-04-17T18:07:50.413Z,14.64
2018-04-17T18:10:17.969Z,14.67
2018-04-17T18:12:46.376Z,14.68
2018-04-17T18:15:13.985Z,14.70
2018-04-17T18:17:41.616Z,14.70
2018-04-17T18:20:09.371Z,14.71
2018-04-17T18:22:36.987Z,14.72
2018-04-17T18:25:04.602Z,14.73
2018-04-17T18:27:32.560Z,14.74
2018-04-17T18:30:00.268Z,14.75
2018-04-17T18:32:27.892Z,14.75
2018-04-17T18:34:55.828Z,14.72
2018-04-17T18:37:23.446Z,14.69
2018-04-17T18:39:51.049Z,14.68
2018-04-17T18:42:19.040Z,14.65
2018-04-17T18:44:46.632Z,14.62
2018-04-17T18:47:14.234Z,14.59
2018-04-17T18:49:42.127Z,14.53
2018-04-17T18:52:09.747Z,14.49
2018-04-17T18:54:37.330Z,14.48
2018-04-17T18:57:04.999Z,14.44
2018-04-17T18:59:32.614Z,14.42
2018-04-17T19:02:00.195Z,14.35
2018-04-17T19:04:27.831Z,14.29
2018-04-17T19:06:55.432Z,14.26
2018-04-17T19:09:22.989Z,14.21
2018-04-17T19:11:50.602Z,14.14
2018-04-17T19:14:18.253Z,14.11
2018-04-17T19:16:45.839Z,14.05
2018-04-17T19:19:13.512Z,13.99
2018-04-17T19:21:41.133Z,13.95
2018-04-17T19:24:08.716Z,13.89
2018-04-17T19:26:36.453Z,13.83
2018-04-17T19:29:04.111Z,13.81
2018-04-17T19:31:31.724Z,13.78
2018-04-17T19:33:59.790Z,13.73
2018-04-17T19:36:27.412Z,13.68
2018-04-17T19:38:55.001Z,13.63
2018-04-17T19:41:22.645Z,13.57
2018-04-17T19:43:50.227Z,13.53
2018-04-17T19:46:17.795Z,13.49
2018-04-17T19:48:45.406Z,13.43
2018-04-17T19:51:12.982Z,13.38
2018-04-17T19:53:40.623Z,13.34
2018-04-17T19:56:08.539Z,13.33
2018-04-17T19:58:36.126Z,13.27
2018-04-17T20:01:03.713Z,13.24
2018-04-17T20:03:31.316Z,13.21
2018-04-17T20:05:58.905Z,13.15
2018-04-17T20:08:26.489Z,13.10
2018-04-17T20:10:54.106Z,13.03
2018-04-17T20:13:21.690Z,13.00
2018-04-17T20:15:49.267Z,12.93
2018-04-17T20:18:17.148Z,12.90
2018-04-17T20:20:44.759Z,12.86
2018-04-17T20:23:12.344Z,12.79
2018-04-17T20:25:39.955Z,12.71
2018-04-17T20:28:07.525Z,12.69
2018-04-17T20:30:35.078Z,12.64
2018-04-17T20:33:02.689Z,12.59
2018-04-17T20:35:30.263Z,12.57
2018-04-17T20:37:57.846Z,12.54
2018-04-17T20:40:25.441Z,12.51
2018-04-17T20:42:53.007Z,12.48
2018-04-17T20:45:20.591Z,12.46
2018-04-17T20:47:48.269Z,12.40
2018-04-17T20:50:15.851Z,12.39
2018-04-17T20:52:43.428Z,12.36
2018-04-17T20:55:11.357Z,12.32
2018-04-17T20:57:38.925Z,12.29
2018-04-17T21:00:06.520Z,12.22
2018-04-17T21:02:34.112Z,12.18
2018-04-17T21:05:01.676Z,12.16
2018-04-17T21:07:29.234Z,12.14
2018-04-17T21:09:57.124Z,12.11
2018-04-17T21:12:24.713Z,12.09
2018-04-17T21:14:52.315Z,12.06
2018-04-17T21:17:20.024Z,12.05
2018-04-17T21:19:47.578Z,12.03
2018-04-17T21:22:15.150Z,11.98
2018-04-17T21:24:42.801Z,11.96
2018-04-17T21:27:10.778Z,11.90
2018-04-17T21:29:38.329Z,11.87
2018-04-17T21:32:05.924Z,11.85
2018-04-17T21:34:33.480Z,11.80
2018-04-17T21:37:01.095Z,11.81
2018-04-17T21:39:28.702Z,11.77
2018-04-17T21:41:56.261Z,11.76
2018-04-17T21:44:23.836Z,11.75
2018-04-17T21:46:51.391Z,11.72
2018-04-17T21:49:18.950Z,11.73
2018-04-17T21:51:46.527Z,11.73
2018-04-17T21:54:14.073Z,11.69
2018-04-17T21:56:41.943Z,11.65
2018-04-17T21:59:09.618Z,11.63
2018-04-17T22:01:37.173Z,11.64
2018-04-17T22:04:04.721Z,11.64
2018-04-17T22:06:32.332Z,11.62
2018-04-17T22:08:59.881Z,11.61
2018-04-17T22:11:27.451Z,11.62
2018-04-17T22:13:55.032Z,11.59
2018-04-17T22:16:22.607Z,11.58
2018-04-17T22:18:50.147Z,11.57
2018-04-17T22:21:17.769Z,11.56
2018-04-17T22:23:45.347Z,11.54
2018-04-17T22:26:12.918Z,11.53
2018-04-17T22:28:40.535Z,11.50
2018-04-17T22:31:08.126Z,11.48
2018-04-17T22:33:35.710Z,11.45
2018-04-17T22:36:03.338Z,11.41
2018-04-17T22:38:30.968Z,11.41
2018-04-17T22:40:58.564Z,11.43
2018-04-17T22:43:26.280Z,11.39
2018-04-17T22:45:53.890Z,11.37
2018-04-17T22:48:21.924Z,11.32
2018-04-17T22:50:49.528Z,11.30
2018-04-17T22:53:17.112Z,11.28
2018-04-17T22:55:44.703Z,11.27
2018-04-17T22:58:12.835Z,11.28
2018-04-17T23:00:40.389Z,11.26
2018-04-17T23:03:07.960Z,11.22
2018-04-17T23:05:35.558Z,11.23
2018-04-17T23:08:03.110Z,11.22
2018-04-17T23:10:30.656Z,11.23
2018-04-17T23:12:58.417Z,11.19
2018-04-17T23:15:25.979Z,11.17
2018-04-17T23:17:53.539Z,11.15
2018-04-17T23:20:21.268Z,11.13
2018-04-17T23:22:48.819Z,11.13
2018-04-17T23:25:16.375Z,11.10
2018-04-17T23:27:43.951Z,11.07
2018-04-17T23:30:11.519Z,11.04
2018-04-17T23:32:39.063Z,11.01
2018-04-17T23:35:06.638Z,11.01
2018-04-17T23:37:34.185Z,11.00
2018-04-17T23:40:01.738Z,10.98
2018-04-17T23:42:29.388Z,10.98
2018-04-17T23:44:56.966Z,10.95
2018-04-17T23:47:24.517Z,10.95
2018-04-17T23:49:52.198Z,10.92
2018-04-17T23:52:19.769Z,10.91
2018-04-17T23:54:47.320Z,10.88
2018-04-17T23:57:14.890Z,10.85
2018-04-17T23:59:42.477Z,10.83
